GAF246 CYYR-ETNW
Flight info
| Callsign | GAF246 |
|---|---|
| Flight time | 6h 15m |
| Altitude | 31000 |
| Route | LOMSI/M062F310 DCT 55N050W 55N040W 56N030W 56N020W DCT PIKIL/N0361F310 DCT SOVED DCT MIMKU DCT TUXOS DCT GOW DCT TLA Y96 HAVEN DCT SURAT DCT PETIL L983 BAVTA P992 ATTUS DCT ELSOB N850 NIE |
| Aircraft | A400/H-SDE2E3FGHIJ4J5M1RWXY/LB1D1 |
Departure
| Time | 2026-05-04 12:09 |
|---|---|
| Airport | Goose Bay Airport (CYYR) |
Arrival
| Time | 2026-05-04 18:25 |
|---|---|
| Airport | Wunstorf Air Base (ETNW) |
| Time | Latitude | Longitude | Altitude | Speed | Heading |
|---|---|---|---|---|---|
| 2026-05-04 11:43 | 53.31017 | -60.40021 | 167 ft | 0 kts | 43° |
| 2026-05-04 12:02 | 53.31078 | -60.40002 | 167 ft | 12 kts | 336° |
| 2026-05-04 12:03 | 53.31161 | -60.40141 | 167 ft | 18 kts | 311° |
| 2026-05-04 12:03 | 53.31248 | -60.40301 | 167 ft | 20 kts | 313° |
| 2026-05-04 12:03 | 53.31348 | -60.40473 | 167 ft | 20 kts | 311° |
| 2026-05-04 12:03 | 53.31438 | -60.40633 | 167 ft | 18 kts | 315° |
| 2026-05-04 12:04 | 53.31525 | -60.40772 | 167 ft | 16 kts | 300° |
| 2026-05-04 12:04 | 53.31549 | -60.40957 | 167 ft | 18 kts | 278° |
| 2026-05-04 12:04 | 53.31571 | -60.41160 | 167 ft | 18 kts | 281° |
| 2026-05-04 12:04 | 53.31589 | -60.41363 | 168 ft | 18 kts | 266° |
| 2026-05-04 12:05 | 53.31535 | -60.41546 | 168 ft | 18 kts | 238° |
| 2026-05-04 12:05 | 53.31463 | -60.41732 | 168 ft | 20 kts | 235° |
| 2026-05-04 12:05 | 53.31381 | -60.41928 | 168 ft | 21 kts | 234° |
| 2026-05-04 12:05 | 53.31290 | -60.42148 | 168 ft | 28 kts | 235° |
| 2026-05-04 12:06 | 53.31177 | -60.42420 | 169 ft | 28 kts | 236° |
| 2026-05-04 12:06 | 53.31065 | -60.42689 | 169 ft | 28 kts | 230° |
| 2026-05-04 12:06 | 53.30948 | -60.42947 | 169 ft | 28 kts | 235° |
| 2026-05-04 12:06 | 53.30837 | -60.43214 | 169 ft | 29 kts | 236° |
| 2026-05-04 12:07 | 53.30722 | -60.43483 | 169 ft | 28 kts | 227° |
| 2026-05-04 12:07 | 53.30580 | -60.43704 | 170 ft | 27 kts | 232° |
| 2026-05-04 12:07 | 53.30472 | -60.43966 | 170 ft | 27 kts | 234° |
| 2026-05-04 12:07 | 53.30362 | -60.44229 | 170 ft | 28 kts | 235° |
| 2026-05-04 12:08 | 53.30275 | -60.44478 | 170 ft | 20 kts | 264° |
| 2026-05-04 12:08 | 53.30350 | -60.44646 | 170 ft | 18 kts | 330° |
| 2026-05-04 12:08 | 53.30441 | -60.44673 | 170 ft | 10 kts | 34° |
| 2026-05-04 12:08 | 53.30454 | -60.44646 | 169 ft | 0 kts | 55° |
| 2026-05-04 12:09 | 53.30489 | -60.44563 | 169 ft | 40 kts | 54° |
| 2026-05-04 12:09 | 53.30807 | -60.43799 | 169 ft | 120 kts | 55° |
| 2026-05-04 12:09 | 53.31386 | -60.42454 | 466 ft | 152 kts | 53° |
| 2026-05-04 12:09 | 53.31990 | -60.41003 | 1259 ft | 151 kts | 54° |
| 2026-05-04 12:10 | 53.32627 | -60.39448 | 1822 ft | 176 kts | 53° |
| 2026-05-04 12:10 | 53.33376 | -60.37628 | 2164 ft | 203 kts | 54° |
| 2026-05-04 12:10 | 53.34211 | -60.35598 | 2648 ft | 218 kts | 55° |
| 2026-05-04 12:10 | 53.35092 | -60.33451 | 3296 ft | 229 kts | 58° |
| 2026-05-04 12:11 | 53.36006 | -60.31223 | 4086 ft | 235 kts | 59° |
| 2026-05-04 12:11 | 53.36939 | -60.28951 | 4942 ft | 238 kts | 58° |
| 2026-05-04 12:11 | 53.37887 | -60.26646 | 5823 ft | 242 kts | 58° |
| 2026-05-04 12:11 | 53.38852 | -60.24299 | 6615 ft | 247 kts | 59° |
| 2026-05-04 12:12 | 53.39834 | -60.21906 | 7434 ft | 252 kts | 59° |
| 2026-05-04 12:12 | 53.40836 | -60.19466 | 8282 ft | 256 kts | 60° |
| 2026-05-04 12:12 | 53.41859 | -60.16972 | 9106 ft | 261 kts | 60° |
| 2026-05-04 12:12 | 53.42898 | -60.14438 | 9886 ft | 266 kts | 60° |
| 2026-05-04 12:13 | 53.43960 | -60.11842 | 10531 ft | 275 kts | 60° |
| 2026-05-04 12:14 | 53.52053 | -59.91998 | 15287 ft | 310 kts | 61° |
| 2026-05-04 12:15 | 53.53279 | -59.88976 | 15882 ft | 315 kts | 61° |
| 2026-05-04 12:15 | 53.54520 | -59.85915 | 16538 ft | 319 kts | 61° |
| 2026-05-04 12:15 | 53.55776 | -59.82816 | 17211 ft | 322 kts | 61° |
| 2026-05-04 12:15 | 53.57043 | -59.79680 | 17870 ft | 326 kts | 62° |
| 2026-05-04 12:16 | 53.58200 | -59.76405 | 18443 ft | 326 kts | 69° |
| 2026-05-04 12:16 | 53.59008 | -59.72854 | 19035 ft | 325 kts | 80° |
| 2026-05-04 12:16 | 53.59371 | -59.69118 | 19636 ft | 323 kts | 91° |
| 2026-05-04 12:16 | 53.59271 | -59.65349 | 20251 ft | 322 kts | 102° |
| 2026-05-04 12:17 | 53.58860 | -59.61639 | 20892 ft | 324 kts | 106° |
| 2026-05-04 12:17 | 53.58320 | -59.57950 | 21514 ft | 325 kts | 109° |
| 2026-05-04 12:17 | 53.57715 | -59.54265 | 22147 ft | 327 kts | 110° |
| 2026-05-04 12:17 | 53.57087 | -59.50573 | 22780 ft | 330 kts | 110° |
| 2026-05-04 12:18 | 53.56454 | -59.46851 | 23339 ft | 332 kts | 110° |
| 2026-05-04 12:18 | 53.55826 | -59.43097 | 23857 ft | 334 kts | 110° |
| 2026-05-04 12:18 | 53.55207 | -59.39334 | 24324 ft | 335 kts | 110° |
| 2026-05-04 12:18 | 53.54591 | -59.35543 | 24826 ft | 336 kts | 110° |
| 2026-05-04 12:19 | 53.53987 | -59.31804 | 25306 ft | 337 kts | 110° |
| 2026-05-04 12:19 | 53.53375 | -59.28001 | 25754 ft | 338 kts | 110° |
| 2026-05-04 12:19 | 53.52758 | -59.24184 | 26221 ft | 339 kts | 110° |
| 2026-05-04 12:19 | 53.52139 | -59.20353 | 26641 ft | 340 kts | 110° |
| 2026-05-04 12:20 | 53.51515 | -59.16511 | 27048 ft | 341 kts | 110° |
| 2026-05-04 12:20 | 53.50888 | -59.12660 | 27430 ft | 342 kts | 110° |
| 2026-05-04 12:20 | 53.50259 | -59.08802 | 27795 ft | 344 kts | 110° |
| 2026-05-04 12:20 | 53.49624 | -59.04922 | 28147 ft | 345 kts | 110° |
| 2026-05-04 12:21 | 53.48983 | -59.01019 | 28499 ft | 347 kts | 110° |
| 2026-05-04 12:21 | 53.48341 | -58.97109 | 28833 ft | 348 kts | 110° |
| 2026-05-04 12:21 | 53.47695 | -58.93186 | 29166 ft | 349 kts | 110° |
| 2026-05-04 12:21 | 53.47046 | -58.89259 | 29505 ft | 350 kts | 111° |
| 2026-05-04 12:22 | 53.46396 | -58.85328 | 29863 ft | 349 kts | 111° |
| 2026-05-04 12:22 | 53.45748 | -58.81416 | 30204 ft | 348 kts | 111° |
| 2026-05-04 12:22 | 53.45100 | -58.77513 | 30471 ft | 347 kts | 111° |
| 2026-05-04 12:22 | 53.44443 | -58.73583 | 30520 ft | 354 kts | 111° |
| 2026-05-04 12:23 | 53.43100 | -58.65578 | 30520 ft | 358 kts | 111° |
| 2026-05-04 12:23 | 53.41753 | -58.57547 | 30473 ft | 358 kts | 111° |
| 2026-05-04 12:24 | 53.40397 | -58.49507 | 30519 ft | 359 kts | 111° |
| 2026-05-04 12:24 | 53.39429 | -58.41299 | 30520 ft | 367 kts | 101° |
| 2026-05-04 12:25 | 53.39937 | -58.32633 | 30518 ft | 384 kts | 83° |
| 2026-05-04 12:25 | 53.41671 | -58.24078 | 30525 ft | 391 kts | 77° |
| 2026-05-04 12:26 | 53.43722 | -58.15602 | 30526 ft | 392 kts | 77° |
| 2026-05-04 12:26 | 53.45429 | -58.08594 | 30534 ft | 386 kts | 77° |
| 2026-05-04 12:27 | 53.47412 | -58.00241 | 30527 ft | 381 kts | 78° |
| 2026-05-04 12:27 | 53.49319 | -57.92013 | 30525 ft | 380 kts | 78° |
| 2026-05-04 12:28 | 53.51224 | -57.83722 | 30531 ft | 381 kts | 78° |
| 2026-05-04 12:28 | 53.53130 | -57.75402 | 30529 ft | 382 kts | 78° |
| 2026-05-04 12:29 | 53.55035 | -57.67075 | 30530 ft | 381 kts | 78° |
| 2026-05-04 12:29 | 53.56936 | -57.58739 | 30534 ft | 381 kts | 78° |
| 2026-05-04 12:30 | 53.58828 | -57.50404 | 30532 ft | 381 kts | 78° |
| 2026-05-04 12:30 | 53.60713 | -57.42072 | 30547 ft | 381 kts | 78° |
| 2026-05-04 12:31 | 53.62593 | -57.33722 | 30533 ft | 381 kts | 79° |
| 2026-05-04 12:31 | 53.64467 | -57.25362 | 30535 ft | 382 kts | 79° |
| 2026-05-04 12:32 | 53.67265 | -57.12829 | 30536 ft | 382 kts | 79° |
| 2026-05-04 12:33 | 53.69130 | -57.04433 | 30532 ft | 382 kts | 79° |
| 2026-05-04 12:33 | 53.70989 | -56.96034 | 30519 ft | 382 kts | 79° |
| 2026-05-04 12:34 | 53.72842 | -56.87615 | 30533 ft | 383 kts | 79° |
| 2026-05-04 12:34 | 53.74693 | -56.79180 | 30536 ft | 382 kts | 79° |
| 2026-05-04 12:35 | 53.76537 | -56.70740 | 30534 ft | 384 kts | 79° |
| 2026-05-04 12:35 | 53.78384 | -56.62248 | 30534 ft | 385 kts | 79° |
| 2026-05-04 12:36 | 53.80226 | -56.53751 | 30541 ft | 385 kts | 79° |
| 2026-05-04 12:36 | 53.82064 | -56.45240 | 30542 ft | 385 kts | 80° |
| 2026-05-04 12:37 | 53.83893 | -56.36730 | 30542 ft | 384 kts | 80° |
| 2026-05-04 12:37 | 53.85703 | -56.28275 | 30539 ft | 384 kts | 80° |
| 2026-05-04 12:38 | 53.87519 | -56.19756 | 30539 ft | 384 kts | 80° |
| 2026-05-04 12:38 | 53.89327 | -56.11235 | 30540 ft | 384 kts | 80° |
| 2026-05-04 12:39 | 53.91129 | -56.02713 | 30542 ft | 384 kts | 80° |
| 2026-05-04 12:39 | 53.92926 | -55.94171 | 30542 ft | 384 kts | 80° |
| 2026-05-04 12:40 | 53.94715 | -55.85634 | 30545 ft | 384 kts | 80° |
| 2026-05-04 12:40 | 53.96500 | -55.77086 | 30545 ft | 383 kts | 80° |
| 2026-05-04 12:41 | 53.98275 | -55.68541 | 30544 ft | 383 kts | 80° |
| 2026-05-04 12:41 | 54.00034 | -55.60033 | 30549 ft | 386 kts | 81° |
| 2026-05-04 12:42 | 54.01812 | -55.51387 | 30548 ft | 388 kts | 81° |
| 2026-05-04 12:42 | 54.03591 | -55.42721 | 30548 ft | 388 kts | 81° |
| 2026-05-04 12:43 | 54.05364 | -55.34050 | 30556 ft | 388 kts | 81° |
| 2026-05-04 12:43 | 54.07129 | -55.25372 | 30556 ft | 388 kts | 81° |
| 2026-05-04 12:44 | 54.08886 | -55.16692 | 30560 ft | 388 kts | 81° |
| 2026-05-04 12:44 | 54.10643 | -55.07970 | 30565 ft | 389 kts | 81° |
| 2026-05-04 12:45 | 54.12400 | -54.99206 | 30559 ft | 392 kts | 81° |
| 2026-05-04 12:45 | 54.14163 | -54.90384 | 30569 ft | 393 kts | 81° |
| 2026-05-04 12:46 | 54.15919 | -54.81562 | 30577 ft | 393 kts | 81° |
| 2026-05-04 12:46 | 54.17669 | -54.72728 | 30575 ft | 393 kts | 81° |
| 2026-05-04 12:47 | 54.19410 | -54.63895 | 30578 ft | 393 kts | 81° |
| 2026-05-04 12:47 | 54.21145 | -54.55052 | 30586 ft | 392 kts | 81° |
| 2026-05-04 12:48 | 54.22872 | -54.46210 | 30585 ft | 393 kts | 81° |
| 2026-05-04 12:48 | 54.24587 | -54.37378 | 30592 ft | 395 kts | 81° |
| 2026-05-04 12:49 | 54.26311 | -54.28471 | 30560 ft | 395 kts | 81° |
| 2026-05-04 12:49 | 54.28034 | -54.19523 | 30606 ft | 397 kts | 81° |
| 2026-05-04 12:50 | 54.29756 | -54.10543 | 30608 ft | 397 kts | 81° |
| 2026-05-04 12:50 | 54.31470 | -54.01560 | 30617 ft | 397 kts | 81° |
| 2026-05-04 12:51 | 54.33178 | -53.92569 | 30620 ft | 397 kts | 81° |
| 2026-05-04 12:51 | 54.34880 | -53.83552 | 30618 ft | 399 kts | 81° |
| 2026-05-04 12:52 | 54.36585 | -53.74483 | 30629 ft | 400 kts | 81° |
| 2026-05-04 12:52 | 54.38286 | -53.65403 | 30630 ft | 400 kts | 81° |
| 2026-05-04 12:53 | 54.39978 | -53.56319 | 30642 ft | 399 kts | 81° |
| 2026-05-04 12:53 | 54.41663 | -53.47233 | 30642 ft | 399 kts | 81° |
| 2026-05-04 12:54 | 54.43330 | -53.38199 | 30640 ft | 399 kts | 81° |
| 2026-05-04 12:54 | 54.45001 | -53.29091 | 30642 ft | 403 kts | 80° |
| 2026-05-04 12:55 | 54.46687 | -53.19839 | 30652 ft | 407 kts | 80° |
| 2026-05-04 12:55 | 54.48378 | -53.10547 | 30653 ft | 407 kts | 80° |
| 2026-05-04 12:56 | 54.50062 | -53.01247 | 30665 ft | 407 kts | 80° |
| 2026-05-04 12:56 | 54.51736 | -52.91949 | 30666 ft | 407 kts | 80° |
| 2026-05-04 12:57 | 54.53392 | -52.82696 | 30678 ft | 407 kts | 80° |
| 2026-05-04 12:57 | 54.55049 | -52.73391 | 30650 ft | 407 kts | 81° |
| 2026-05-04 12:58 | 54.56705 | -52.64032 | 30678 ft | 410 kts | 81° |
| 2026-05-04 12:58 | 54.58364 | -52.54620 | 30691 ft | 410 kts | 81° |
| 2026-05-04 12:59 | 54.60017 | -52.45201 | 30691 ft | 410 kts | 81° |
| 2026-05-04 12:59 | 54.61662 | -52.35771 | 30698 ft | 412 kts | 81° |
| 2026-05-04 13:00 | 54.63307 | -52.26284 | 30704 ft | 412 kts | 81° |
| 2026-05-04 13:00 | 54.64947 | -52.16790 | 30704 ft | 412 kts | 81° |
| 2026-05-04 13:01 | 54.66578 | -52.07289 | 30711 ft | 413 kts | 80° |
| 2026-05-04 13:01 | 54.68204 | -51.97761 | 30710 ft | 413 kts | 80° |
| 2026-05-04 13:02 | 54.69826 | -51.88212 | 30725 ft | 413 kts | 80° |
| 2026-05-04 13:02 | 54.71436 | -51.78679 | 30728 ft | 413 kts | 80° |
| 2026-05-04 13:03 | 54.73040 | -51.69130 | 30725 ft | 413 kts | 80° |
| 2026-05-04 13:03 | 54.74625 | -51.59641 | 30739 ft | 413 kts | 80° |
| 2026-05-04 13:04 | 54.76214 | -51.50078 | 30735 ft | 414 kts | 80° |
| 2026-05-04 13:04 | 54.77806 | -51.40432 | 30752 ft | 418 kts | 79° |
| 2026-05-04 13:05 | 54.79400 | -51.30730 | 30755 ft | 419 kts | 79° |
| 2026-05-04 13:05 | 54.80988 | -51.21018 | 30755 ft | 419 kts | 79° |
| 2026-05-04 13:06 | 54.82569 | -51.11294 | 30757 ft | 419 kts | 80° |
| 2026-05-04 13:06 | 54.84142 | -51.01556 | 30768 ft | 419 kts | 80° |
| 2026-05-04 13:07 | 54.85707 | -50.91807 | 30758 ft | 419 kts | 79° |
| 2026-05-04 13:07 | 54.87266 | -50.82039 | 30770 ft | 421 kts | 79° |
| 2026-05-04 13:08 | 54.88822 | -50.72237 | 30771 ft | 421 kts | 79° |
| 2026-05-04 13:08 | 54.90361 | -50.62491 | 30790 ft | 421 kts | 80° |
| 2026-05-04 13:09 | 54.91900 | -50.52679 | 30787 ft | 421 kts | 80° |
| 2026-05-04 13:09 | 54.93433 | -50.42850 | 30800 ft | 422 kts | 79° |
| 2026-05-04 13:10 | 54.94962 | -50.32984 | 30802 ft | 423 kts | 80° |
| 2026-05-04 13:10 | 54.96484 | -50.23113 | 30804 ft | 423 kts | 80° |
| 2026-05-04 13:11 | 54.97999 | -50.13226 | 30812 ft | 422 kts | 80° |
| 2026-05-04 13:11 | 54.99498 | -50.03339 | 30813 ft | 421 kts | 82° |
| 2026-05-04 13:12 | 55.00275 | -49.93336 | 30815 ft | 416 kts | 90° |
| 2026-05-04 13:12 | 55.00723 | -49.83292 | 30811 ft | 415 kts | 91° |
| 2026-05-04 13:13 | 55.01098 | -49.73257 | 30807 ft | 415 kts | 91° |
| 2026-05-04 13:13 | 55.01404 | -49.64921 | 30814 ft | 415 kts | 91° |
| 2026-05-04 13:14 | 55.01837 | -49.53194 | 30832 ft | 419 kts | 91° |
| 2026-05-04 13:14 | 55.02211 | -49.43037 | 30832 ft | 420 kts | 91° |
| 2026-05-04 13:15 | 55.02520 | -49.34515 | 30829 ft | 420 kts | 91° |
| 2026-05-04 13:15 | 55.02880 | -49.24353 | 30847 ft | 420 kts | 91° |
| 2026-05-04 13:16 | 55.03230 | -49.14202 | 30845 ft | 420 kts | 91° |
| 2026-05-04 13:16 | 55.03572 | -49.04041 | 30845 ft | 420 kts | 91° |
| 2026-05-04 13:17 | 55.03903 | -48.93934 | 30859 ft | 420 kts | 91° |
| 2026-05-04 13:17 | 55.04227 | -48.83775 | 30842 ft | 420 kts | 91° |
| 2026-05-04 13:18 | 55.04543 | -48.73537 | 30859 ft | 425 kts | 91° |
| 2026-05-04 13:18 | 55.04854 | -48.63250 | 30878 ft | 425 kts | 91° |
| 2026-05-04 13:19 | 55.05157 | -48.52953 | 30875 ft | 425 kts | 91° |
| 2026-05-04 13:19 | 55.05451 | -48.42661 | 30875 ft | 425 kts | 91° |
| 2026-05-04 13:20 | 55.05736 | -48.32370 | 30892 ft | 425 kts | 91° |
| 2026-05-04 13:20 | 55.06013 | -48.22080 | 30892 ft | 425 kts | 91° |
| 2026-05-04 13:21 | 55.06280 | -48.11783 | 30890 ft | 425 kts | 92° |
| 2026-05-04 13:21 | 55.06539 | -48.01468 | 30907 ft | 428 kts | 91° |
| 2026-05-04 13:22 | 55.06789 | -47.91106 | 30905 ft | 431 kts | 91° |
| 2026-05-04 13:22 | 55.07035 | -47.80658 | 30906 ft | 431 kts | 91° |
| 2026-05-04 13:23 | 55.07272 | -47.70223 | 30917 ft | 431 kts | 91° |
| 2026-05-04 13:23 | 55.07499 | -47.59778 | 30916 ft | 430 kts | 91° |
| 2026-05-04 13:24 | 55.07717 | -47.49332 | 30912 ft | 430 kts | 91° |
| 2026-05-04 13:24 | 55.07926 | -47.38892 | 30936 ft | 430 kts | 92° |
| 2026-05-04 13:25 | 55.08222 | -47.23197 | 30933 ft | 433 kts | 91° |
| 2026-05-04 13:25 | 55.08410 | -47.12663 | 30949 ft | 434 kts | 91° |
| 2026-05-04 13:26 | 55.08590 | -47.02126 | 30950 ft | 434 kts | 91° |
| 2026-05-04 13:26 | 55.08760 | -46.91590 | 30949 ft | 434 kts | 91° |
| 2026-05-04 13:27 | 55.08921 | -46.81055 | 30966 ft | 434 kts | 92° |
| 2026-05-04 13:27 | 55.09073 | -46.70523 | 30966 ft | 434 kts | 92° |
| 2026-05-04 13:28 | 55.09214 | -46.60062 | 30966 ft | 434 kts | 92° |
| 2026-05-04 13:28 | 55.09347 | -46.49525 | 30983 ft | 436 kts | 91° |
| 2026-05-04 13:29 | 55.09472 | -46.38884 | 30985 ft | 439 kts | 91° |
| 2026-05-04 13:29 | 55.09590 | -46.28215 | 30985 ft | 439 kts | 91° |
| 2026-05-04 13:30 | 55.09698 | -46.17553 | 30996 ft | 439 kts | 91° |
| 2026-05-04 13:30 | 55.09797 | -46.06894 | 30996 ft | 439 kts | 91° |
| 2026-05-04 13:31 | 55.09886 | -45.96227 | 30995 ft | 439 kts | 91° |
| 2026-05-04 13:31 | 55.09965 | -45.85550 | 31014 ft | 439 kts | 91° |
| 2026-05-04 13:32 | 55.10035 | -45.74881 | 31006 ft | 440 kts | 90° |
| 2026-05-04 13:32 | 55.10096 | -45.64158 | 31012 ft | 443 kts | 90° |
| 2026-05-04 13:33 | 55.10148 | -45.53397 | 31026 ft | 443 kts | 90° |
| 2026-05-04 13:33 | 55.10191 | -45.42626 | 31026 ft | 443 kts | 90° |
| 2026-05-04 13:34 | 55.10223 | -45.31926 | 31037 ft | 443 kts | 90° |
| 2026-05-04 13:34 | 55.10247 | -45.21161 | 31045 ft | 443 kts | 91° |
| 2026-05-04 13:35 | 55.10264 | -45.05007 | 31045 ft | 443 kts | 91° |
| 2026-05-04 13:36 | 55.10264 | -44.94223 | 31059 ft | 446 kts | 90° |
| 2026-05-04 13:36 | 55.10254 | -44.83352 | 31058 ft | 449 kts | 90° |
| 2026-05-04 13:37 | 55.10234 | -44.72432 | 31059 ft | 449 kts | 90° |
| 2026-05-04 13:37 | 55.10204 | -44.61526 | 31072 ft | 449 kts | 90° |
| 2026-05-04 13:38 | 55.10165 | -44.50611 | 31075 ft | 449 kts | 90° |
| 2026-05-04 13:38 | 55.10116 | -44.39776 | 31075 ft | 449 kts | 90° |
| 2026-05-04 13:39 | 55.10058 | -44.28874 | 31084 ft | 449 kts | 90° |
| 2026-05-04 13:39 | 55.09989 | -44.17958 | 31086 ft | 450 kts | 89° |
| 2026-05-04 13:40 | 55.09911 | -44.06994 | 31097 ft | 452 kts | 89° |
| 2026-05-04 13:40 | 55.09823 | -43.96024 | 31104 ft | 452 kts | 89° |
| 2026-05-04 13:41 | 55.09724 | -43.85061 | 31102 ft | 452 kts | 89° |
| 2026-05-04 13:41 | 55.09616 | -43.74083 | 31116 ft | 452 kts | 89° |
| 2026-05-04 13:42 | 55.09435 | -43.57629 | 31116 ft | 452 kts | 90° |
| 2026-05-04 13:42 | 55.09302 | -43.46653 | 31116 ft | 452 kts | 90° |
| 2026-05-04 13:43 | 55.09159 | -43.35665 | 31132 ft | 453 kts | 88° |
| 2026-05-04 13:43 | 55.09006 | -43.24649 | 31132 ft | 454 kts | 88° |
| 2026-05-04 13:44 | 55.08842 | -43.13620 | 31141 ft | 454 kts | 88° |
| 2026-05-04 13:44 | 55.08669 | -43.02593 | 31145 ft | 454 kts | 88° |
| 2026-05-04 13:45 | 55.08486 | -42.91634 | 31143 ft | 454 kts | 89° |
| 2026-05-04 13:45 | 55.08293 | -42.80608 | 31160 ft | 454 kts | 89° |
| 2026-05-04 13:46 | 55.08090 | -42.69584 | 31159 ft | 455 kts | 89° |
| 2026-05-04 13:46 | 55.07876 | -42.58543 | 31160 ft | 455 kts | 88° |
| 2026-05-04 13:47 | 55.07652 | -42.47496 | 31173 ft | 455 kts | 89° |
| 2026-05-04 13:47 | 55.07418 | -42.36447 | 31173 ft | 455 kts | 89° |
| 2026-05-04 13:48 | 55.07174 | -42.25401 | 31173 ft | 455 kts | 89° |
| 2026-05-04 13:48 | 55.06920 | -42.14354 | 31181 ft | 455 kts | 89° |
| 2026-05-04 13:49 | 55.06657 | -42.03315 | 31181 ft | 456 kts | 89° |
| 2026-05-04 13:49 | 55.06383 | -41.92264 | 31204 ft | 456 kts | 88° |
| 2026-05-04 13:50 | 55.06098 | -41.81254 | 31192 ft | 453 kts | 88° |
| 2026-05-04 13:50 | 55.05807 | -41.70283 | 31192 ft | 453 kts | 88° |
| 2026-05-04 13:51 | 55.05508 | -41.59377 | 31200 ft | 453 kts | 88° |
| 2026-05-04 13:51 | 55.05197 | -41.48398 | 31205 ft | 453 kts | 88° |
| 2026-05-04 13:52 | 55.04711 | -41.31921 | 31205 ft | 453 kts | 88° |
| 2026-05-04 13:53 | 55.04375 | -41.20946 | 31216 ft | 453 kts | 88° |
| 2026-05-04 13:53 | 55.04028 | -41.09963 | 31225 ft | 453 kts | 88° |
| 2026-05-04 13:54 | 55.03490 | -40.93532 | 31229 ft | 452 kts | 88° |
| 2026-05-04 13:55 | 55.02931 | -40.77108 | 31226 ft | 453 kts | 88° |
| 2026-05-04 13:55 | 55.02352 | -40.60745 | 31234 ft | 453 kts | 88° |
| 2026-05-04 13:56 | 55.01952 | -40.49787 | 31237 ft | 453 kts | 88° |
| 2026-05-04 13:57 | 55.01333 | -40.33357 | 31268 ft | 452 kts | 90° |
| 2026-05-04 13:58 | 55.00485 | -40.11808 | 31248 ft | 444 kts | 90° |
| 2026-05-04 13:58 | 55.00695 | -39.95876 | 31257 ft | 435 kts | 74° |
| 2026-05-04 13:59 | 55.02008 | -39.85600 | 31251 ft | 434 kts | 71° |
| 2026-05-04 14:00 | 55.04212 | -39.70381 | 31297 ft | 434 kts | 71° |
| 2026-05-04 14:00 | 55.06374 | -39.55226 | 31269 ft | 426 kts | 72° |
| 2026-05-04 14:01 | 55.07779 | -39.45180 | 31271 ft | 426 kts | 72° |
| 2026-05-04 14:02 | 55.09633 | -39.31793 | 31274 ft | 426 kts | 72° |
| 2026-05-04 14:02 | 55.11016 | -39.21725 | 31277 ft | 426 kts | 73° |
| 2026-05-04 14:03 | 55.12391 | -39.11660 | 31292 ft | 426 kts | 73° |
| 2026-05-04 14:03 | 55.13752 | -39.01614 | 31282 ft | 424 kts | 73° |
| 2026-05-04 14:04 | 55.15775 | -38.86578 | 31290 ft | 423 kts | 73° |
| 2026-05-04 14:04 | 55.17114 | -38.76539 | 31289 ft | 423 kts | 73° |
| 2026-05-04 14:05 | 55.19105 | -38.61481 | 31291 ft | 424 kts | 73° |
| 2026-05-04 14:06 | 55.20421 | -38.51438 | 31290 ft | 422 kts | 74° |
| 2026-05-04 14:06 | 55.21717 | -38.41468 | 31299 ft | 419 kts | 74° |
| 2026-05-04 14:07 | 55.22994 | -38.31591 | 31294 ft | 419 kts | 75° |
| 2026-05-04 14:07 | 55.24274 | -38.21628 | 31308 ft | 419 kts | 75° |
| 2026-05-04 14:08 | 55.25544 | -38.11667 | 31303 ft | 419 kts | 75° |
| 2026-05-04 14:08 | 55.26806 | -38.01699 | 31301 ft | 419 kts | 75° |
| 2026-05-04 14:09 | 55.28672 | -37.86826 | 31310 ft | 412 kts | 75° |
| 2026-05-04 14:10 | 55.30504 | -37.72070 | 31316 ft | 413 kts | 76° |
| 2026-05-04 14:10 | 55.31716 | -37.62224 | 31316 ft | 413 kts | 76° |
| 2026-05-04 14:11 | 55.32920 | -37.52367 | 31317 ft | 413 kts | 76° |
| 2026-05-04 14:11 | 55.34714 | -37.37554 | 31326 ft | 412 kts | 76° |
| 2026-05-04 14:12 | 55.35885 | -37.27785 | 31325 ft | 407 kts | 76° |
| 2026-05-04 14:13 | 55.37622 | -37.13178 | 31323 ft | 407 kts | 76° |
| 2026-05-04 14:13 | 55.38770 | -37.03434 | 31331 ft | 407 kts | 76° |
| 2026-05-04 14:14 | 55.39911 | -36.93682 | 31330 ft | 407 kts | 76° |
| 2026-05-04 14:14 | 55.41605 | -36.79060 | 31337 ft | 405 kts | 77° |
| 2026-05-04 14:15 | 55.43807 | -36.59801 | 31334 ft | 402 kts | 77° |
| 2026-05-04 14:16 | 55.45446 | -36.45293 | 31334 ft | 405 kts | 77° |
| 2026-05-04 14:17 | 55.47080 | -36.30650 | 31339 ft | 406 kts | 77° |
| 2026-05-04 14:18 | 55.48698 | -36.15985 | 31345 ft | 406 kts | 77° |
| 2026-05-04 14:19 | 55.50828 | -35.96411 | 31345 ft | 406 kts | 77° |
| 2026-05-04 14:19 | 55.51881 | -35.86622 | 31344 ft | 406 kts | 77° |
| 2026-05-04 14:20 | 55.52926 | -35.76825 | 31342 ft | 406 kts | 77° |
| 2026-05-04 14:20 | 55.53963 | -35.67027 | 31350 ft | 406 kts | 77° |
| 2026-05-04 14:21 | 55.55487 | -35.52474 | 31351 ft | 402 kts | 77° |
| 2026-05-04 14:21 | 55.56494 | -35.42764 | 31351 ft | 402 kts | 77° |
| 2026-05-04 14:22 | 55.57494 | -35.33047 | 31351 ft | 402 kts | 78° |
| 2026-05-04 14:22 | 55.58486 | -35.23327 | 31351 ft | 402 kts | 78° |
| 2026-05-04 14:23 | 55.59962 | -35.08714 | 31359 ft | 406 kts | 78° |
| 2026-05-04 14:24 | 55.60951 | -34.98821 | 31353 ft | 408 kts | 78° |
| 2026-05-04 14:24 | 55.61930 | -34.88938 | 31357 ft | 408 kts | 78° |
| 2026-05-04 14:25 | 55.62900 | -34.79059 | 31356 ft | 407 kts | 78° |
| 2026-05-04 14:25 | 55.64340 | -34.64235 | 31360 ft | 407 kts | 78° |
| 2026-05-04 14:26 | 55.65290 | -34.54343 | 31362 ft | 408 kts | 78° |
| 2026-05-04 14:26 | 55.66233 | -34.44442 | 31371 ft | 407 kts | 78° |
| 2026-05-04 14:27 | 55.67157 | -34.34651 | 31365 ft | 405 kts | 78° |
| 2026-05-04 14:27 | 55.68078 | -34.24802 | 31364 ft | 405 kts | 78° |
| 2026-05-04 14:28 | 55.68991 | -34.14959 | 31364 ft | 405 kts | 79° |
| 2026-05-04 14:28 | 55.69895 | -34.05117 | 31364 ft | 405 kts | 79° |
| 2026-05-04 14:29 | 55.71681 | -33.85405 | 31378 ft | 405 kts | 79° |
| 2026-05-04 14:30 | 55.72557 | -33.75594 | 31365 ft | 401 kts | 79° |
| 2026-05-04 14:31 | 55.73873 | -33.60703 | 31365 ft | 413 kts | 80° |
| 2026-05-04 14:32 | 55.75625 | -33.40512 | 31366 ft | 414 kts | 80° |
| 2026-05-04 14:32 | 55.76488 | -33.30412 | 31368 ft | 414 kts | 80° |
| 2026-05-04 14:33 | 55.77344 | -33.20302 | 31370 ft | 414 kts | 80° |
| 2026-05-04 14:33 | 55.78190 | -33.10201 | 31361 ft | 414 kts | 80° |
| 2026-05-04 14:34 | 55.79023 | -33.00154 | 31357 ft | 413 kts | 81° |
| 2026-05-04 14:34 | 55.79854 | -32.90037 | 31369 ft | 413 kts | 81° |
| 2026-05-04 14:35 | 55.80675 | -32.79925 | 31373 ft | 413 kts | 81° |
| 2026-05-04 14:35 | 55.81489 | -32.69804 | 31358 ft | 413 kts | 81° |
| 2026-05-04 14:36 | 55.82293 | -32.59692 | 31364 ft | 413 kts | 81° |
| 2026-05-04 14:36 | 55.83088 | -32.49588 | 31365 ft | 412 kts | 81° |
| 2026-05-04 14:37 | 55.83874 | -32.39477 | 31363 ft | 412 kts | 81° |
| 2026-05-04 14:37 | 55.84652 | -32.29370 | 31352 ft | 414 kts | 82° |
| 2026-05-04 14:37 | 55.85044 | -32.24226 | 31366 ft | 425 kts | 82° |
| 2026-05-04 14:38 | 55.85442 | -32.18984 | 31361 ft | 430 kts | 82° |
| 2026-05-04 14:38 | 55.86238 | -32.08410 | 31361 ft | 431 kts | 82° |
| 2026-05-04 14:39 | 55.87026 | -31.97818 | 31360 ft | 432 kts | 83° |
| 2026-05-04 14:39 | 55.87805 | -31.87209 | 31361 ft | 432 kts | 83° |
| 2026-05-04 14:40 | 55.88951 | -31.71366 | 31365 ft | 432 kts | 83° |
| 2026-05-04 14:40 | 55.89706 | -31.60760 | 31357 ft | 432 kts | 83° |
| 2026-05-04 14:41 | 55.90453 | -31.50151 | 31357 ft | 431 kts | 83° |
| 2026-05-04 14:42 | 55.91917 | -31.28927 | 31357 ft | 431 kts | 83° |
| 2026-05-04 14:42 | 55.92636 | -31.18308 | 31359 ft | 431 kts | 83° |
| 2026-05-04 14:43 | 55.93345 | -31.07695 | 31357 ft | 431 kts | 84° |
| 2026-05-04 14:43 | 55.94045 | -30.97068 | 31359 ft | 431 kts | 84° |
| 2026-05-04 14:44 | 55.94736 | -30.86444 | 31347 ft | 432 kts | 84° |
| 2026-05-04 14:44 | 55.95426 | -30.75685 | 31353 ft | 439 kts | 84° |
| 2026-05-04 14:45 | 55.96106 | -30.64924 | 31362 ft | 439 kts | 84° |
| 2026-05-04 14:45 | 55.96783 | -30.54081 | 31361 ft | 439 kts | 84° |
| 2026-05-04 14:46 | 55.97450 | -30.43233 | 31358 ft | 440 kts | 84° |
| 2026-05-04 14:46 | 55.98107 | -30.32383 | 31346 ft | 440 kts | 85° |
| 2026-05-04 14:47 | 55.98755 | -30.21527 | 31346 ft | 440 kts | 85° |
| 2026-05-04 14:47 | 55.99393 | -30.10663 | 31344 ft | 439 kts | 85° |
| 2026-05-04 14:48 | 56.00016 | -29.99790 | 31344 ft | 439 kts | 85° |
| 2026-05-04 14:48 | 56.00425 | -29.90746 | 31352 ft | 439 kts | 87° |
| 2026-05-04 14:49 | 56.00836 | -29.79858 | 31344 ft | 439 kts | 87° |
| 2026-05-04 14:49 | 56.01235 | -29.68959 | 31344 ft | 439 kts | 87° |
| 2026-05-04 14:50 | 56.01637 | -29.58075 | 31349 ft | 438 kts | 87° |
| 2026-05-04 14:50 | 56.02035 | -29.47213 | 31325 ft | 437 kts | 87° |
| 2026-05-04 14:51 | 56.02423 | -29.36399 | 31345 ft | 438 kts | 87° |
| 2026-05-04 14:51 | 56.02804 | -29.25514 | 31345 ft | 438 kts | 87° |
| 2026-05-04 14:52 | 56.03174 | -29.14632 | 31345 ft | 438 kts | 88° |
| 2026-05-04 14:52 | 56.03535 | -29.03756 | 31343 ft | 438 kts | 88° |
| 2026-05-04 14:53 | 56.03886 | -28.92870 | 31345 ft | 438 kts | 88° |
| 2026-05-04 14:53 | 56.04227 | -28.81999 | 31344 ft | 438 kts | 88° |
| 2026-05-04 14:54 | 56.04559 | -28.71121 | 31344 ft | 438 kts | 88° |
| 2026-05-04 14:54 | 56.04880 | -28.60249 | 31334 ft | 438 kts | 88° |
| 2026-05-04 14:55 | 56.05193 | -28.49378 | 31334 ft | 438 kts | 88° |
| 2026-05-04 14:55 | 56.05496 | -28.38498 | 31340 ft | 437 kts | 88° |
| 2026-05-04 14:56 | 56.05788 | -28.27634 | 31334 ft | 437 kts | 88° |
| 2026-05-04 14:56 | 56.06070 | -28.16836 | 31335 ft | 437 kts | 88° |
| 2026-05-04 14:57 | 56.06344 | -28.05973 | 31332 ft | 436 kts | 88° |
| 2026-05-04 14:57 | 56.06607 | -27.95126 | 31331 ft | 436 kts | 88° |
| 2026-05-04 14:58 | 56.06862 | -27.84278 | 31328 ft | 436 kts | 88° |
| 2026-05-04 14:58 | 56.07106 | -27.73431 | 31331 ft | 436 kts | 88° |
| 2026-05-04 14:59 | 56.07341 | -27.62590 | 31323 ft | 436 kts | 88° |
| 2026-05-04 15:00 | 56.07676 | -27.46321 | 31324 ft | 436 kts | 89° |
| 2026-05-04 15:00 | 56.07887 | -27.35476 | 31324 ft | 436 kts | 89° |
| 2026-05-04 15:01 | 56.08187 | -27.19187 | 31320 ft | 436 kts | 89° |
| 2026-05-04 15:01 | 56.08374 | -27.08339 | 31318 ft | 436 kts | 89° |
| 2026-05-04 15:02 | 56.08552 | -26.97487 | 31319 ft | 436 kts | 89° |
| 2026-05-04 15:02 | 56.08721 | -26.86628 | 31317 ft | 436 kts | 89° |
| 2026-05-04 15:03 | 56.08880 | -26.75777 | 31303 ft | 436 kts | 89° |
| 2026-05-04 15:03 | 56.09029 | -26.64935 | 31318 ft | 435 kts | 89° |
| 2026-05-04 15:04 | 56.09168 | -26.54163 | 31313 ft | 435 kts | 89° |
| 2026-05-04 15:04 | 56.09298 | -26.43321 | 31313 ft | 435 kts | 89° |
| 2026-05-04 15:05 | 56.09419 | -26.32474 | 31307 ft | 435 kts | 89° |
| 2026-05-04 15:05 | 56.09530 | -26.21621 | 31308 ft | 435 kts | 89° |
| 2026-05-04 15:06 | 56.09632 | -26.10778 | 31302 ft | 435 kts | 89° |
| 2026-05-04 15:07 | 56.09767 | -25.94504 | 31302 ft | 435 kts | 89° |
| 2026-05-04 15:07 | 56.09845 | -25.83657 | 31298 ft | 436 kts | 89° |
| 2026-05-04 15:08 | 56.09914 | -25.72796 | 31302 ft | 436 kts | 89° |
| 2026-05-04 15:08 | 56.09973 | -25.62000 | 31294 ft | 436 kts | 89° |
| 2026-05-04 15:09 | 56.10023 | -25.51070 | 31294 ft | 436 kts | 89° |
| 2026-05-04 15:09 | 56.10062 | -25.40283 | 31294 ft | 436 kts | 90° |
| 2026-05-04 15:10 | 56.10105 | -25.23992 | 31299 ft | 436 kts | 89° |
| 2026-05-04 15:11 | 56.10125 | -25.07665 | 31286 ft | 437 kts | 89° |
| 2026-05-04 15:11 | 56.10127 | -24.96777 | 31286 ft | 437 kts | 90° |
| 2026-05-04 15:12 | 56.10120 | -24.85897 | 31283 ft | 437 kts | 90° |
| 2026-05-04 15:12 | 56.10103 | -24.75012 | 31283 ft | 437 kts | 90° |
| 2026-05-04 15:13 | 56.10076 | -24.64128 | 31285 ft | 437 kts | 90° |
| 2026-05-04 15:13 | 56.10039 | -24.53252 | 31277 ft | 435 kts | 90° |
| 2026-05-04 15:14 | 56.09994 | -24.42507 | 31277 ft | 434 kts | 90° |
| 2026-05-04 15:14 | 56.09939 | -24.31695 | 31277 ft | 434 kts | 90° |
| 2026-05-04 15:15 | 56.09875 | -24.20883 | 31277 ft | 434 kts | 90° |
| 2026-05-04 15:15 | 56.09801 | -24.10076 | 31261 ft | 434 kts | 90° |
| 2026-05-04 15:16 | 56.09672 | -23.93798 | 31275 ft | 436 kts | 90° |
| 2026-05-04 15:17 | 56.09521 | -23.77498 | 31273 ft | 436 kts | 90° |
| 2026-05-04 15:17 | 56.09349 | -23.61195 | 31273 ft | 436 kts | 90° |
| 2026-05-04 15:18 | 56.09222 | -23.50325 | 31271 ft | 436 kts | 90° |
| 2026-05-04 15:19 | 56.09015 | -23.34086 | 31266 ft | 434 kts | 91° |
| 2026-05-04 15:19 | 56.08788 | -23.17967 | 31267 ft | 430 kts | 91° |
| 2026-05-04 15:20 | 56.08626 | -23.07253 | 31263 ft | 430 kts | 91° |
| 2026-05-04 15:20 | 56.08454 | -22.96543 | 31265 ft | 430 kts | 91° |
| 2026-05-04 15:21 | 56.08274 | -22.85833 | 31263 ft | 430 kts | 91° |
| 2026-05-04 15:22 | 56.07985 | -22.69752 | 31264 ft | 431 kts | 92° |
| 2026-05-04 15:22 | 56.07677 | -22.53765 | 31257 ft | 427 kts | 92° |
| 2026-05-04 15:23 | 56.07460 | -22.43129 | 31259 ft | 427 kts | 92° |
| 2026-05-04 15:23 | 56.07236 | -22.32575 | 31252 ft | 427 kts | 92° |
| 2026-05-04 15:24 | 56.06758 | -22.11306 | 31261 ft | 427 kts | 92° |
| 2026-05-04 15:25 | 56.06507 | -22.00734 | 31254 ft | 423 kts | 93° |
| 2026-05-04 15:26 | 56.06114 | -21.84965 | 31251 ft | 422 kts | 93° |
| 2026-05-04 15:26 | 56.05703 | -21.69224 | 31251 ft | 422 kts | 93° |
| 2026-05-04 15:27 | 56.05271 | -21.53477 | 31245 ft | 422 kts | 93° |
| 2026-05-04 15:28 | 56.04822 | -21.37829 | 31249 ft | 421 kts | 93° |
| 2026-05-04 15:29 | 56.04351 | -21.22102 | 31243 ft | 422 kts | 93° |
| 2026-05-04 15:30 | 56.03175 | -20.85465 | 31242 ft | 422 kts | 93° |
| 2026-05-04 15:31 | 56.02637 | -20.69737 | 31235 ft | 423 kts | 93° |
| 2026-05-04 15:32 | 56.01697 | -20.43563 | 31233 ft | 423 kts | 94° |
| 2026-05-04 15:34 | 56.00698 | -20.17343 | 31229 ft | 424 kts | 93° |
| 2026-05-04 15:34 | 56.00096 | -20.01563 | 31223 ft | 424 kts | 90° |
| 2026-05-04 15:35 | 56.00264 | -19.85815 | 31224 ft | 424 kts | 87° |
| 2026-05-04 15:36 | 56.00569 | -19.70016 | 31220 ft | 424 kts | 87° |
| 2026-05-04 15:36 | 56.00761 | -19.59471 | 31220 ft | 424 kts | 87° |
| 2026-05-04 15:37 | 56.00908 | -19.50713 | 31215 ft | 424 kts | 87° |
| 2026-05-04 15:37 | 56.01075 | -19.40176 | 31213 ft | 424 kts | 87° |
| 2026-05-04 15:38 | 56.01232 | -19.29631 | 31213 ft | 424 kts | 87° |
| 2026-05-04 15:38 | 56.01380 | -19.19094 | 31212 ft | 424 kts | 87° |
| 2026-05-04 15:39 | 56.01520 | -19.08539 | 31208 ft | 424 kts | 87° |
| 2026-05-04 15:40 | 56.01712 | -18.92792 | 31206 ft | 424 kts | 88° |
| 2026-05-04 15:40 | 56.01830 | -18.82248 | 31203 ft | 424 kts | 88° |
| 2026-05-04 15:41 | 56.01938 | -18.71702 | 31205 ft | 424 kts | 88° |
| 2026-05-04 15:41 | 56.02037 | -18.61147 | 31201 ft | 424 kts | 88° |
| 2026-05-04 15:42 | 56.02128 | -18.50604 | 31201 ft | 424 kts | 88° |
| 2026-05-04 15:42 | 56.02209 | -18.40053 | 31195 ft | 424 kts | 88° |
| 2026-05-04 15:43 | 56.02281 | -18.29513 | 31202 ft | 424 kts | 88° |
| 2026-05-04 15:43 | 56.02344 | -18.18976 | 31190 ft | 424 kts | 88° |
| 2026-05-04 15:44 | 56.02398 | -18.08520 | 31195 ft | 423 kts | 88° |
| 2026-05-04 15:44 | 56.02444 | -17.97988 | 31198 ft | 423 kts | 88° |
| 2026-05-04 15:45 | 56.02480 | -17.87465 | 31189 ft | 423 kts | 88° |
| 2026-05-04 15:45 | 56.02507 | -17.76939 | 31188 ft | 423 kts | 89° |
| 2026-05-04 15:46 | 56.02526 | -17.66408 | 31186 ft | 423 kts | 89° |
| 2026-05-04 15:46 | 56.02535 | -17.55881 | 31185 ft | 423 kts | 89° |
| 2026-05-04 15:47 | 56.02536 | -17.45358 | 31184 ft | 423 kts | 89° |
| 2026-05-04 15:47 | 56.02527 | -17.34812 | 31183 ft | 424 kts | 89° |
| 2026-05-04 15:48 | 56.02510 | -17.24283 | 31176 ft | 424 kts | 89° |
| 2026-05-04 15:48 | 56.02467 | -17.08488 | 31183 ft | 423 kts | 89° |
| 2026-05-04 15:49 | 56.02427 | -16.98019 | 31180 ft | 423 kts | 89° |
| 2026-05-04 15:49 | 56.02379 | -16.87489 | 31174 ft | 424 kts | 89° |
| 2026-05-04 15:50 | 56.02321 | -16.76963 | 31168 ft | 424 kts | 90° |
| 2026-05-04 15:50 | 56.02254 | -16.66429 | 31189 ft | 424 kts | 90° |
| 2026-05-04 15:51 | 56.02179 | -16.55896 | 31177 ft | 424 kts | 90° |
| 2026-05-04 15:51 | 56.02094 | -16.45363 | 31174 ft | 424 kts | 90° |
| 2026-05-04 15:52 | 56.02000 | -16.34829 | 31161 ft | 424 kts | 91° |
| 2026-05-04 15:52 | 56.01898 | -16.24291 | 31167 ft | 424 kts | 91° |
| 2026-05-04 15:53 | 56.01786 | -16.13758 | 31162 ft | 424 kts | 91° |
| 2026-05-04 15:53 | 56.01665 | -16.03208 | 31168 ft | 425 kts | 91° |
| 2026-05-04 15:54 | 56.01535 | -15.92646 | 31154 ft | 425 kts | 91° |
| 2026-05-04 15:54 | 56.01396 | -15.82075 | 31161 ft | 425 kts | 91° |
| 2026-05-04 15:55 | 56.01248 | -15.71504 | 31162 ft | 425 kts | 92° |
| 2026-05-04 15:55 | 56.01090 | -15.60931 | 31162 ft | 425 kts | 92° |
| 2026-05-04 15:56 | 56.00924 | -15.50364 | 31155 ft | 425 kts | 92° |
| 2026-05-04 15:56 | 56.00750 | -15.39867 | 31149 ft | 426 kts | 92° |
| 2026-05-04 15:57 | 56.00565 | -15.29271 | 31150 ft | 426 kts | 92° |
| 2026-05-04 15:57 | 56.00372 | -15.18690 | 31146 ft | 426 kts | 92° |
| 2026-05-04 15:58 | 56.00169 | -15.08103 | 31148 ft | 426 kts | 92° |
| 2026-05-04 15:58 | 55.99991 | -14.97514 | 31148 ft | 426 kts | 91° |
| 2026-05-04 15:59 | 55.99998 | -14.86917 | 31142 ft | 427 kts | 89° |
| 2026-05-04 15:59 | 56.00057 | -14.76316 | 31139 ft | 427 kts | 89° |
| 2026-05-04 16:00 | 56.00096 | -14.65696 | 31133 ft | 427 kts | 90° |
| 2026-05-04 16:00 | 56.00110 | -14.55073 | 31143 ft | 428 kts | 90° |
| 2026-05-04 16:01 | 56.00110 | -14.44449 | 31140 ft | 427 kts | 90° |
| 2026-05-04 16:01 | 56.00099 | -14.33838 | 31130 ft | 427 kts | 90° |
| 2026-05-04 16:02 | 56.00080 | -14.23223 | 31138 ft | 427 kts | 90° |
| 2026-05-04 16:03 | 56.00035 | -14.07292 | 31136 ft | 428 kts | 90° |
| 2026-05-04 16:03 | 56.00032 | -13.96664 | 31127 ft | 428 kts | 89° |
| 2026-05-04 16:04 | 56.00182 | -13.86035 | 31129 ft | 428 kts | 88° |
| 2026-05-04 16:04 | 56.00447 | -13.70173 | 31128 ft | 428 kts | 88° |
| 2026-05-04 16:05 | 56.00598 | -13.59527 | 31128 ft | 429 kts | 88° |
| 2026-05-04 16:06 | 56.00795 | -13.43533 | 31118 ft | 429 kts | 89° |
| 2026-05-04 16:07 | 56.01022 | -13.22212 | 31116 ft | 429 kts | 89° |
| 2026-05-04 16:08 | 56.01215 | -13.00842 | 31116 ft | 432 kts | 89° |
| 2026-05-04 16:09 | 56.01405 | -12.74064 | 31115 ft | 432 kts | 89° |
| 2026-05-04 16:10 | 56.01515 | -12.52586 | 31099 ft | 433 kts | 90° |
| 2026-05-04 16:11 | 56.01588 | -12.30983 | 31100 ft | 435 kts | 90° |
| 2026-05-04 16:12 | 56.01627 | -11.98560 | 31101 ft | 435 kts | 90° |
| 2026-05-04 16:13 | 56.01605 | -11.77003 | 31102 ft | 435 kts | 90° |
| 2026-05-04 16:14 | 56.01546 | -11.55373 | 31098 ft | 435 kts | 91° |
| 2026-05-04 16:16 | 56.01419 | -11.28304 | 31103 ft | 436 kts | 91° |
| 2026-05-04 16:17 | 56.01232 | -11.01185 | 31101 ft | 436 kts | 91° |
| 2026-05-04 16:18 | 56.01039 | -10.79501 | 31097 ft | 436 kts | 91° |
| 2026-05-04 16:19 | 56.00745 | -10.52375 | 31097 ft | 437 kts | 91° |
| 2026-05-04 16:20 | 56.00392 | -10.25313 | 31083 ft | 437 kts | 91° |
| 2026-05-04 16:22 | 56.00108 | -9.98158 | 31086 ft | 437 kts | 87° |
| 2026-05-04 16:23 | 56.01576 | -9.65659 | 31093 ft | 438 kts | 84° |
| 2026-05-04 16:25 | 56.02957 | -9.34908 | 31078 ft | 438 kts | 84° |
| 2026-05-04 16:26 | 56.04543 | -8.96843 | 31078 ft | 439 kts | 85° |
| 2026-05-04 16:28 | 56.05606 | -8.69615 | 31073 ft | 439 kts | 85° |
| 2026-05-04 16:29 | 56.06993 | -8.31468 | 31069 ft | 439 kts | 85° |
| 2026-05-04 16:31 | 56.07912 | -8.04201 | 31070 ft | 439 kts | 85° |
| 2026-05-04 16:32 | 56.08936 | -7.71441 | 31063 ft | 439 kts | 85° |
| 2026-05-04 16:33 | 56.09568 | -7.49666 | 31060 ft | 439 kts | 86° |
| 2026-05-04 16:34 | 56.10019 | -7.33262 | 31063 ft | 440 kts | 86° |
| 2026-05-04 16:35 | 56.10857 | -7.00401 | 31058 ft | 439 kts | 86° |
| 2026-05-04 16:36 | 56.11240 | -6.84073 | 31059 ft | 436 kts | 86° |
| 2026-05-04 16:37 | 56.11600 | -6.67847 | 31066 ft | 434 kts | 86° |
| 2026-05-04 16:38 | 56.12045 | -6.46309 | 31061 ft | 434 kts | 86° |
| 2026-05-04 16:39 | 56.12549 | -6.19282 | 31057 ft | 434 kts | 86° |
| 2026-05-04 16:40 | 56.12911 | -5.97657 | 31060 ft | 434 kts | 87° |
| 2026-05-04 16:41 | 56.13309 | -5.70612 | 31066 ft | 434 kts | 87° |
| 2026-05-04 16:43 | 56.13650 | -5.43476 | 31052 ft | 436 kts | 88° |
| 2026-05-04 16:43 | 56.13826 | -5.27162 | 31054 ft | 436 kts | 88° |
| 2026-05-04 16:45 | 56.14114 | -4.94547 | 31049 ft | 436 kts | 88° |
| 2026-05-04 16:46 | 56.14287 | -4.67462 | 31053 ft | 436 kts | 88° |
| 2026-05-04 16:47 | 56.14384 | -4.45731 | 31052 ft | 435 kts | 89° |
| 2026-05-04 16:48 | 56.14442 | -4.24043 | 31044 ft | 435 kts | 89° |
| 2026-05-04 16:49 | 56.14462 | -4.02371 | 31028 ft | 435 kts | 89° |
| 2026-05-04 16:50 | 56.14444 | -3.80702 | 31019 ft | 434 kts | 89° |
| 2026-05-04 16:51 | 56.14407 | -3.64462 | 31020 ft | 434 kts | 90° |
| 2026-05-04 16:52 | 56.14322 | -3.42790 | 31021 ft | 434 kts | 90° |
| 2026-05-04 16:53 | 56.14235 | -3.26582 | 31019 ft | 434 kts | 90° |
| 2026-05-04 16:54 | 56.14084 | -3.04946 | 31014 ft | 434 kts | 90° |
| 2026-05-04 16:55 | 56.13788 | -2.72499 | 30993 ft | 433 kts | 91° |
| 2026-05-04 16:56 | 56.13477 | -2.45484 | 30991 ft | 433 kts | 91° |
| 2026-05-04 16:57 | 56.13262 | -2.29280 | 30991 ft | 433 kts | 91° |
| 2026-05-04 16:58 | 56.12943 | -2.07745 | 30994 ft | 434 kts | 91° |
| 2026-05-04 17:00 | 56.12393 | -1.75324 | 30995 ft | 434 kts | 92° |
| 2026-05-04 17:01 | 56.11870 | -1.48355 | 30997 ft | 432 kts | 92° |
| 2026-05-04 17:02 | 56.11410 | -1.26827 | 31007 ft | 432 kts | 92° |
| 2026-05-04 17:03 | 56.11041 | -1.10680 | 31003 ft | 432 kts | 92° |
| 2026-05-04 17:03 | 56.10652 | -0.94576 | 31003 ft | 431 kts | 92° |
| 2026-05-04 17:04 | 56.10100 | -0.73114 | 31011 ft | 431 kts | 93° |
| 2026-05-04 17:05 | 56.09511 | -0.51660 | 31008 ft | 431 kts | 93° |
| 2026-05-04 17:06 | 56.09045 | -0.35564 | 31013 ft | 431 kts | 93° |
| 2026-05-04 17:07 | 56.08670 | -0.23104 | 31014 ft | 431 kts | 93° |
| 2026-05-04 17:07 | 56.08224 | -0.08829 | 31014 ft | 431 kts | 93° |
| 2026-05-04 17:08 | 56.07762 | 0.05447 | 31014 ft | 431 kts | 94° |
| 2026-05-04 17:09 | 56.07405 | 0.16146 | 31011 ft | 430 kts | 94° |
| 2026-05-04 17:09 | 56.07038 | 0.26852 | 31014 ft | 430 kts | 94° |
| 2026-05-04 17:10 | 56.06081 | 0.53590 | 31016 ft | 431 kts | 94° |
| 2026-05-04 17:11 | 56.05682 | 0.64270 | 31016 ft | 429 kts | 94° |
| 2026-05-04 17:12 | 56.05069 | 0.80247 | 31016 ft | 429 kts | 94° |
| 2026-05-04 17:13 | 56.04000 | 1.06859 | 31017 ft | 429 kts | 94° |
| 2026-05-04 17:14 | 56.03109 | 1.28041 | 31019 ft | 428 kts | 95° |
| 2026-05-04 17:15 | 56.02415 | 1.43939 | 31019 ft | 428 kts | 95° |
| 2026-05-04 17:16 | 56.01459 | 1.65133 | 31023 ft | 428 kts | 95° |
| 2026-05-04 17:17 | 56.00466 | 1.86308 | 31022 ft | 427 kts | 95° |
| 2026-05-04 17:18 | 55.99439 | 2.07436 | 31019 ft | 427 kts | 95° |
| 2026-05-04 17:19 | 55.98373 | 2.28562 | 31025 ft | 427 kts | 95° |
| 2026-05-04 17:20 | 55.97277 | 2.49621 | 31022 ft | 425 kts | 96° |
| 2026-05-04 17:20 | 55.96432 | 2.65394 | 31025 ft | 425 kts | 96° |
| 2026-05-04 17:21 | 55.95273 | 2.86419 | 31026 ft | 425 kts | 96° |
| 2026-05-04 17:22 | 55.94682 | 2.96894 | 31025 ft | 424 kts | 96° |
| 2026-05-04 17:23 | 55.93475 | 3.17818 | 31028 ft | 424 kts | 96° |
| 2026-05-04 17:24 | 55.92546 | 3.33502 | 31027 ft | 424 kts | 96° |
| 2026-05-04 17:25 | 55.91674 | 3.54423 | 31028 ft | 423 kts | 89° |
| 2026-05-04 17:26 | 55.92052 | 3.75381 | 31028 ft | 423 kts | 88° |
| 2026-05-04 17:27 | 55.92561 | 4.01508 | 31025 ft | 422 kts | 88° |
| 2026-05-04 17:28 | 55.92909 | 4.22440 | 31019 ft | 422 kts | 88° |
| 2026-05-04 17:29 | 55.93366 | 4.53848 | 31022 ft | 422 kts | 89° |
| 2026-05-04 17:31 | 55.93686 | 4.80005 | 31021 ft | 422 kts | 89° |
| 2026-05-04 17:32 | 55.93950 | 5.06173 | 31020 ft | 422 kts | 89° |
| 2026-05-04 17:33 | 55.94118 | 5.27102 | 31020 ft | 422 kts | 89° |
| 2026-05-04 17:34 | 55.93698 | 5.47960 | 31021 ft | 421 kts | 105° |
| 2026-05-04 17:35 | 55.90263 | 5.62288 | 31020 ft | 419 kts | 119° |
| 2026-05-04 17:35 | 55.87480 | 5.71407 | 31020 ft | 419 kts | 120° |
| 2026-05-04 17:36 | 55.84685 | 5.80514 | 31020 ft | 419 kts | 120° |
| 2026-05-04 17:36 | 55.81940 | 5.89596 | 31020 ft | 419 kts | 119° |
| 2026-05-04 17:37 | 55.79190 | 5.98753 | 31019 ft | 419 kts | 119° |
| 2026-05-04 17:37 | 55.76440 | 6.07890 | 31019 ft | 419 kts | 120° |
| 2026-05-04 17:38 | 55.73683 | 6.17006 | 31020 ft | 419 kts | 120° |
| 2026-05-04 17:38 | 55.70914 | 6.26122 | 31019 ft | 420 kts | 120° |
| 2026-05-04 17:39 | 55.66745 | 6.39780 | 31019 ft | 420 kts | 120° |
| 2026-05-04 17:39 | 55.63958 | 6.48865 | 31019 ft | 420 kts | 120° |
| 2026-05-04 17:40 | 55.61165 | 6.57936 | 31019 ft | 420 kts | 120° |
| 2026-05-04 17:40 | 55.58367 | 6.66990 | 31019 ft | 419 kts | 120° |
| 2026-05-04 17:41 | 55.55571 | 6.76004 | 31020 ft | 418 kts | 120° |
| 2026-05-04 17:41 | 55.52766 | 6.85011 | 31019 ft | 419 kts | 120° |
| 2026-05-04 17:42 | 55.49971 | 6.93950 | 31019 ft | 418 kts | 120° |
| 2026-05-04 17:42 | 55.47155 | 7.02929 | 31019 ft | 418 kts | 120° |
| 2026-05-04 17:43 | 55.44330 | 7.11900 | 31019 ft | 418 kts | 120° |
| 2026-05-04 17:43 | 55.41503 | 7.20845 | 31019 ft | 418 kts | 121° |
| 2026-05-04 17:44 | 55.38666 | 7.29785 | 31019 ft | 418 kts | 121° |
| 2026-05-04 17:44 | 55.35824 | 7.38709 | 31017 ft | 418 kts | 121° |
| 2026-05-04 17:45 | 55.32975 | 7.47619 | 31019 ft | 418 kts | 121° |
| 2026-05-04 17:45 | 55.30119 | 7.56519 | 31019 ft | 418 kts | 121° |
| 2026-05-04 17:46 | 55.27261 | 7.65396 | 31017 ft | 416 kts | 120° |
| 2026-05-04 17:46 | 55.24283 | 7.74028 | 31014 ft | 412 kts | 129° |
| 2026-05-04 17:47 | 55.20133 | 7.80782 | 31016 ft | 407 kts | 150° |
| 2026-05-04 17:47 | 55.15073 | 7.84976 | 31016 ft | 405 kts | 161° |
| 2026-05-04 17:48 | 55.09786 | 7.88319 | 31018 ft | 404 kts | 163° |
| 2026-05-04 17:48 | 55.04477 | 7.91551 | 31022 ft | 404 kts | 162° |
| 2026-05-04 17:49 | 54.99183 | 7.94860 | 31015 ft | 404 kts | 163° |
| 2026-05-04 17:49 | 54.93920 | 7.98208 | 31021 ft | 402 kts | 163° |
| 2026-05-04 17:50 | 54.88680 | 8.01549 | 31022 ft | 401 kts | 163° |
| 2026-05-04 17:50 | 54.83436 | 8.04882 | 31020 ft | 401 kts | 163° |
| 2026-05-04 17:51 | 54.78196 | 8.08200 | 31018 ft | 401 kts | 163° |
| 2026-05-04 17:51 | 54.72947 | 8.11513 | 30996 ft | 401 kts | 165° |
| 2026-05-04 17:52 | 54.67719 | 8.14807 | 31019 ft | 399 kts | 167° |
| 2026-05-04 17:52 | 54.62503 | 8.18081 | 31020 ft | 399 kts | 167° |
| 2026-05-04 17:53 | 54.58171 | 8.20792 | 31014 ft | 399 kts | 167° |
| 2026-05-04 17:53 | 54.52956 | 8.24047 | 31014 ft | 399 kts | 167° |
| 2026-05-04 17:54 | 54.47741 | 8.27294 | 31014 ft | 398 kts | 167° |
| 2026-05-04 17:54 | 54.42546 | 8.30525 | 31016 ft | 394 kts | 168° |
| 2026-05-04 17:55 | 54.37407 | 8.33713 | 31013 ft | 392 kts | 168° |
| 2026-05-04 17:55 | 54.32266 | 8.36887 | 31013 ft | 392 kts | 168° |
| 2026-05-04 17:56 | 54.27126 | 8.40050 | 31007 ft | 392 kts | 169° |
| 2026-05-04 17:56 | 54.21995 | 8.43201 | 31004 ft | 392 kts | 169° |
| 2026-05-04 17:57 | 54.16868 | 8.46345 | 31004 ft | 390 kts | 168° |
| 2026-05-04 17:57 | 54.11770 | 8.49464 | 30998 ft | 389 kts | 169° |
| 2026-05-04 17:58 | 54.06658 | 8.52578 | 31001 ft | 390 kts | 169° |
| 2026-05-04 17:58 | 54.01582 | 8.55664 | 31000 ft | 390 kts | 169° |
| 2026-05-04 17:59 | 53.96468 | 8.58766 | 30999 ft | 390 kts | 169° |
| 2026-05-04 18:00 | 53.88818 | 8.63394 | 30994 ft | 388 kts | 168° |
| 2026-05-04 18:00 | 53.83736 | 8.66457 | 30995 ft | 387 kts | 168° |
| 2026-05-04 18:01 | 53.78672 | 8.69504 | 30875 ft | 381 kts | 168° |
| 2026-05-04 18:01 | 53.76192 | 8.70999 | 30300 ft | 378 kts | 168° |
| 2026-05-04 18:01 | 53.73717 | 8.72484 | 29607 ft | 377 kts | 168° |
| 2026-05-04 18:02 | 53.68746 | 8.75446 | 27972 ft | 381 kts | 168° |
| 2026-05-04 18:02 | 53.66246 | 8.76934 | 27234 ft | 381 kts | 167° |
| 2026-05-04 18:02 | 53.63755 | 8.78418 | 26583 ft | 379 kts | 167° |
| 2026-05-04 18:02 | 53.61272 | 8.79898 | 25942 ft | 378 kts | 167° |
| 2026-05-04 18:03 | 53.58792 | 8.81375 | 25358 ft | 377 kts | 167° |
| 2026-05-04 18:03 | 53.56327 | 8.82841 | 25061 ft | 376 kts | 167° |
| 2026-05-04 18:03 | 53.53867 | 8.84301 | 24989 ft | 373 kts | 166° |
| 2026-05-04 18:03 | 53.51425 | 8.85749 | 24988 ft | 372 kts | 166° |
| 2026-05-04 18:04 | 53.48983 | 8.87194 | 24989 ft | 372 kts | 166° |
| 2026-05-04 18:04 | 53.46545 | 8.88635 | 24937 ft | 368 kts | 166° |
| 2026-05-04 18:04 | 53.41755 | 8.91464 | 23800 ft | 366 kts | 166° |
| 2026-05-04 18:05 | 53.39360 | 8.92872 | 23265 ft | 362 kts | 165° |
| 2026-05-04 18:05 | 53.37010 | 8.94257 | 22835 ft | 355 kts | 165° |
| 2026-05-04 18:05 | 53.34722 | 8.95603 | 22232 ft | 353 kts | 165° |
| 2026-05-04 18:05 | 53.32404 | 8.96963 | 21605 ft | 352 kts | 165° |
| 2026-05-04 18:06 | 53.27797 | 8.99659 | 20463 ft | 349 kts | 165° |
| 2026-05-04 18:06 | 53.25477 | 9.01015 | 19895 ft | 348 kts | 165° |
| 2026-05-04 18:06 | 53.23224 | 9.02331 | 19370 ft | 346 kts | 164° |
| 2026-05-04 18:07 | 53.20957 | 9.03654 | 18843 ft | 345 kts | 164° |
| 2026-05-04 18:07 | 53.18695 | 9.04972 | 18328 ft | 343 kts | 164° |
| 2026-05-04 18:07 | 53.16443 | 9.06283 | 17765 ft | 342 kts | 164° |
| 2026-05-04 18:07 | 53.14207 | 9.07584 | 17248 ft | 339 kts | 164° |
| 2026-05-04 18:08 | 53.11993 | 9.08871 | 16736 ft | 335 kts | 164° |
| 2026-05-04 18:08 | 53.09799 | 9.10145 | 16239 ft | 333 kts | 164° |
| 2026-05-04 18:08 | 53.07623 | 9.11407 | 15744 ft | 330 kts | 164° |
| 2026-05-04 18:08 | 53.05466 | 9.12656 | 15252 ft | 327 kts | 164° |
| 2026-05-04 18:09 | 53.01278 | 9.15463 | 14296 ft | 326 kts | 147° |
| 2026-05-04 18:09 | 52.98080 | 9.20789 | 13366 ft | 324 kts | 134° |
| 2026-05-04 18:10 | 52.96598 | 9.23580 | 12848 ft | 322 kts | 134° |
| 2026-05-04 18:10 | 52.95126 | 9.26359 | 12341 ft | 319 kts | 134° |
| 2026-05-04 18:10 | 52.93665 | 9.29116 | 11870 ft | 317 kts | 134° |
| 2026-05-04 18:10 | 52.92214 | 9.31849 | 11395 ft | 314 kts | 134° |
| 2026-05-04 18:11 | 52.90775 | 9.34556 | 11038 ft | 312 kts | 134° |
| 2026-05-04 18:11 | 52.89347 | 9.37243 | 10956 ft | 311 kts | 134° |
| 2026-05-04 18:11 | 52.87912 | 9.39941 | 10940 ft | 311 kts | 134° |
| 2026-05-04 18:11 | 52.86503 | 9.42590 | 10945 ft | 311 kts | 134° |
| 2026-05-04 18:12 | 52.85058 | 9.45304 | 10947 ft | 310 kts | 134° |
| 2026-05-04 18:12 | 52.83649 | 9.47951 | 10946 ft | 310 kts | 134° |
| 2026-05-04 18:12 | 52.82221 | 9.50631 | 10947 ft | 310 kts | 134° |
| 2026-05-04 18:12 | 52.80794 | 9.53305 | 10958 ft | 310 kts | 134° |
| 2026-05-04 18:13 | 52.79366 | 9.55982 | 10955 ft | 310 kts | 134° |
| 2026-05-04 18:13 | 52.77936 | 9.58662 | 10955 ft | 310 kts | 134° |
| 2026-05-04 18:13 | 52.75061 | 9.63967 | 10949 ft | 309 kts | 139° |
| 2026-05-04 18:14 | 52.73260 | 9.65786 | 10950 ft | 302 kts | 163° |
| 2026-05-04 18:14 | 52.71227 | 9.66584 | 10950 ft | 301 kts | 173° |
| 2026-05-04 18:14 | 52.69165 | 9.67131 | 10962 ft | 298 kts | 174° |
| 2026-05-04 18:15 | 52.65146 | 9.68145 | 10960 ft | 290 kts | 174° |
| 2026-05-04 18:15 | 52.61167 | 9.69145 | 10964 ft | 289 kts | 174° |
| 2026-05-04 18:15 | 52.59205 | 9.69630 | 10667 ft | 283 kts | 174° |
| 2026-05-04 18:16 | 52.57253 | 9.70104 | 10192 ft | 284 kts | 174° |
| 2026-05-04 18:16 | 52.55305 | 9.70586 | 9769 ft | 283 kts | 172° |
| 2026-05-04 18:16 | 52.53483 | 9.71766 | 9299 ft | 286 kts | 147° |
| 2026-05-04 18:17 | 52.51555 | 9.77350 | 8399 ft | 292 kts | 99° |
| 2026-05-04 18:17 | 52.51393 | 9.80668 | 7977 ft | 291 kts | 94° |
| 2026-05-04 18:17 | 52.51221 | 9.87261 | 7117 ft | 287 kts | 94° |
| 2026-05-04 18:18 | 52.50961 | 9.90479 | 6695 ft | 283 kts | 111° |
| 2026-05-04 18:18 | 52.49973 | 9.93089 | 6354 ft | 262 kts | 139° |
| 2026-05-04 18:18 | 52.48513 | 9.94536 | 5662 ft | 237 kts | 167° |
| 2026-05-04 18:18 | 52.46902 | 9.94539 | 4845 ft | 236 kts | 200° |
| 2026-05-04 18:19 | 52.44925 | 9.90639 | 4246 ft | 232 kts | 264° |
| 2026-05-04 18:19 | 52.45133 | 9.88045 | 3986 ft | 231 kts | 288° |
| 2026-05-04 18:19 | 52.45733 | 9.85605 | 3698 ft | 229 kts | 293° |
| 2026-05-04 18:20 | 52.46375 | 9.83254 | 3226 ft | 229 kts | 294° |
| 2026-05-04 18:20 | 52.47023 | 9.80877 | 3019 ft | 228 kts | 294° |
| 2026-05-04 18:20 | 52.47668 | 9.78488 | 2999 ft | 229 kts | 294° |
| 2026-05-04 18:20 | 52.48257 | 9.76064 | 2999 ft | 229 kts | 285° |
| 2026-05-04 18:21 | 52.48468 | 9.73507 | 3003 ft | 220 kts | 269° |
| 2026-05-04 18:21 | 52.48308 | 9.71062 | 3008 ft | 212 kts | 261° |
| 2026-05-04 18:21 | 52.48066 | 9.68688 | 3001 ft | 210 kts | 261° |
| 2026-05-04 18:21 | 52.47850 | 9.66320 | 2870 ft | 209 kts | 262° |
| 2026-05-04 18:22 | 52.47649 | 9.64018 | 2572 ft | 200 kts | 262° |
| 2026-05-04 18:22 | 52.47451 | 9.61813 | 2287 ft | 191 kts | 262° |
| 2026-05-04 18:22 | 52.47262 | 9.59726 | 2030 ft | 181 kts | 262° |
| 2026-05-04 18:22 | 52.47081 | 9.57710 | 1793 ft | 177 kts | 262° |
| 2026-05-04 18:23 | 52.46906 | 9.55761 | 1584 ft | 167 kts | 262° |
| 2026-05-04 18:23 | 52.46740 | 9.53915 | 1313 ft | 161 kts | 262° |
| 2026-05-04 18:23 | 52.46581 | 9.52145 | 1093 ft | 151 kts | 262° |
| 2026-05-04 18:23 | 52.46430 | 9.50475 | 912 ft | 147 kts | 262° |
| 2026-05-04 18:24 | 52.46282 | 9.48829 | 720 ft | 145 kts | 262° |
| 2026-05-04 18:24 | 52.46137 | 9.47213 | 535 ft | 145 kts | 263° |
| 2026-05-04 18:24 | 52.45990 | 9.45582 | 354 ft | 145 kts | 263° |
| 2026-05-04 18:24 | 52.45847 | 9.43980 | 198 ft | 129 kts | 263° |
| 2026-05-04 18:25 | 52.45749 | 9.42881 | 200 ft | 77 kts | 262° |
| 2026-05-04 18:25 | 52.45686 | 9.42169 | 194 ft | 52 kts | 262° |
| 2026-05-04 18:25 | 52.45677 | 9.41819 | 195 ft | 15 kts | 314° |
| 2026-05-04 18:25 | 52.45759 | 9.41778 | 196 ft | 11 kts | 350° |
| 2026-05-04 18:26 | 52.45799 | 9.41766 | 193 ft | 3 kts | 349° |
| 2026-05-04 18:26 | 52.45846 | 9.41793 | 189 ft | 9 kts | 53° |
| 2026-05-04 18:26 | 52.45857 | 9.41892 | 180 ft | 10 kts | 82° |
| 2026-05-04 18:26 | 52.45870 | 9.42030 | 183 ft | 14 kts | 81° |
| 2026-05-04 18:27 | 52.45884 | 9.42191 | 184 ft | 14 kts | 82° |
| 2026-05-04 18:27 | 52.45907 | 9.42278 | 180 ft | 6 kts | 21° |
| 2026-05-04 18:27 | 52.45943 | 9.42265 | 185 ft | 5 kts | 311° |
| 2026-05-04 18:27 | 52.45945 | 9.42202 | 182 ft | 7 kts | 262° |
| 2026-05-04 18:28 | 52.45942 | 9.42170 | 185 ft | 0 kts | 264° |
| 2026-05-04 18:30 | 52.45942 | 9.42171 | 185 ft | 0 kts | 264° |